createdAt,value
2022-11-29T00:00:20.593Z,99912.25
2022-11-29T00:01:25.346Z,99910.38
2022-11-29T00:02:28.245Z,99904.06
2022-11-29T00:03:30.768Z,99913.13
2022-11-29T00:04:35.110Z,99904.06
2022-11-29T00:05:37.032Z,99913.13
2022-11-29T00:06:39.914Z,99912.06
2022-11-29T00:07:41.603Z,99908.50
2022-11-29T00:08:44.703Z,99904.91
2022-11-29T00:09:46.431Z,99898.59
2022-11-29T00:10:49.234Z,99910.38
2022-11-29T00:12:09.554Z,99901.31
2022-11-29T00:13:11.266Z,99909.53
2022-11-29T00:14:16.104Z,99901.31
2022-11-29T00:15:18.880Z,99908.69
2022-11-29T00:16:20.607Z,99905.94
2022-11-29T00:17:23.330Z,99909.53
2022-11-29T00:18:25.017Z,99913.28
2022-11-29T00:19:27.726Z,99907.84
2022-11-29T00:20:31.454Z,99906.97
2022-11-29T00:21:34.308Z,99904.47
2022-11-29T00:22:37.104Z,99906.97
2022-11-29T00:23:38.772Z,99906.16
2022-11-29T00:24:43.008Z,99908.91
2022-11-29T00:25:44.898Z,99903.44
2022-11-29T00:26:47.992Z,99908.06
2022-11-29T00:27:51.326Z,99907.19
2022-11-29T00:28:54.096Z,99911.63
2022-11-29T00:29:55.779Z,99914.38
2022-11-29T00:30:58.535Z,99908.91
2022-11-29T00:32:01.602Z,99909.72
2022-11-29T00:33:04.515Z,99906.16
2022-11-29T00:34:07.963Z,99910.56
2022-11-29T00:35:10.014Z,99906.97
2022-11-29T00:36:14.499Z,99908.91
2022-11-29T00:37:16.170Z,99906.97
2022-11-29T00:38:18.877Z,99905.94
2022-11-29T00:39:20.562Z,99903.22
2022-11-29T00:40:23.236Z,99901.31
2022-11-29T00:41:25.280Z,99906.78
2022-11-29T00:42:27.991Z,99904.91
2022-11-29T00:43:29.622Z,99902.19
2022-11-29T00:44:32.370Z,99900.28
2022-11-29T00:45:34.095Z,99905.75
2022-11-29T00:46:37.157Z,99908.50
2022-11-29T00:47:38.815Z,99903.88
2022-11-29T00:48:41.519Z,99905.56
2022-11-29T00:49:44.201Z,99903.69
2022-11-29T00:50:45.916Z,99906.41
2022-11-29T00:51:50.057Z,99901.75
2022-11-29T00:52:51.709Z,99906.41
2022-11-29T00:53:54.396Z,99906.41
2022-11-29T00:54:56.041Z,99902.84
2022-11-29T00:55:58.976Z,99907.47
2022-11-29T00:57:00.752Z,99905.75
2022-11-29T00:58:03.581Z,99905.75
2022-11-29T00:59:05.309Z,99904.91
2022-11-29T01:00:09.214Z,99904.06
2022-11-29T01:01:11.724Z,99903.03
2022-11-29T01:02:14.545Z,99906.78
2022-11-29T01:03:16.882Z,99905.75
2022-11-29T01:04:20.103Z,99906.59
2022-11-29T01:05:21.826Z,99906.59
2022-11-29T01:06:24.571Z,99905.56
2022-11-29T01:07:27.731Z,99902.63
2022-11-29T01:08:30.419Z,99909.97
2022-11-29T01:09:32.076Z,99909.16
2022-11-29T01:10:34.735Z,99910.81
2022-11-29T01:11:36.478Z,99914.63
2022-11-29T01:12:40.042Z,99916.28
2022-11-29T01:13:42.452Z,99913.56
2022-11-29T01:14:45.435Z,99916.28
2022-11-29T01:15:55.514Z,99918.84
2022-11-29T01:16:58.286Z,99912.53
2022-11-29T01:17:59.998Z,99921.56
2022-11-29T01:19:02.843Z,99917.81
2022-11-29T01:20:07.207Z,99917.13
2022-11-29T01:21:12.027Z,99926.84
2022-11-29T01:22:13.671Z,99920.53
2022-11-29T01:23:17.697Z,99920.31
2022-11-29T01:24:19.445Z,99920.31
2022-11-29T01:25:22.248Z,99922.22
2022-11-29T01:26:25.724Z,99921.38
2022-11-29T01:27:28.381Z,99915.91
2022-11-29T01:28:30.185Z,99918.66
2022-11-29T01:29:32.896Z,99922.00
2022-11-29T01:30:34.622Z,99923.03
2022-11-29T01:31:37.295Z,99920.31
2022-11-29T01:32:39.080Z,99920.31
2022-11-29T01:33:42.312Z,99922.22
2022-11-29T01:34:44.359Z,99924.75
2022-11-29T01:35:51.066Z,99928.50
2022-11-29T01:36:53.808Z,99918.66
2022-11-29T01:37:55.500Z,99924.97
2022-11-29T01:39:02.250Z,99931.25
2022-11-29T01:40:05.294Z,99924.97
2022-11-29T01:41:16.952Z,99923.03
2022-11-29T01:42:18.712Z,99933.97
2022-11-29T01:43:21.588Z,99925.78
2022-11-29T01:45:01.131Z,99926.63
2022-11-29T01:46:03.865Z,99933.97
2022-11-29T01:47:05.956Z,99932.94
2022-11-29T01:48:09.174Z,99936.72
2022-11-29T01:49:13.537Z,99928.50
2022-11-29T01:50:16.304Z,99927.69
2022-11-29T01:51:18.461Z,99931.25
2022-11-29T01:52:24.103Z,99934.84
2022-11-29T01:53:26.149Z,99931.25
2022-11-29T01:54:31.799Z,99929.38
2022-11-29T01:55:33.703Z,99929.38
2022-11-29T01:56:37.403Z,99932.09
2022-11-29T01:57:40.713Z,99932.09
2022-11-29T01:58:44.073Z,99935.69
2022-11-29T01:59:48.258Z,99933.63
2022-11-29T02:00:51.047Z,99927.47
2022-11-29T02:01:53.038Z,99925.59
2022-11-29T02:02:59.557Z,99924.75
2022-11-29T02:04:01.494Z,99928.50
2022-11-29T02:05:06.123Z,99927.47
2022-11-29T02:06:08.103Z,99932.94
2022-11-29T02:07:10.797Z,99925.59
2022-11-29T02:08:14.771Z,99932.75
2022-11-29T02:09:19.599Z,99923.72
2022-11-29T02:10:28.391Z,99929.19
2022-11-29T02:11:45.468Z,99925.59
2022-11-29T02:12:56.389Z,99926.44
2022-11-29T02:14:09.410Z,99931.91
2022-11-29T02:15:22.539Z,99931.91
2022-11-29T02:16:29.597Z,99926.44
2022-11-29T02:17:39.570Z,99930.88
2022-11-29T02:18:51.572Z,99937.19
2022-11-29T02:20:26.116Z,99936.34
2022-11-29T02:21:34.540Z,99926.25
2022-11-29T02:22:38.773Z,99929.84
2022-11-29T02:23:57.397Z,99935.31
2022-11-29T02:25:12.250Z,99930.88
2022-11-29T02:26:24.454Z,99928.13
2022-11-29T02:27:43.590Z,99931.72
2022-11-29T02:29:09.724Z,99935.31
2022-11-29T02:30:20.113Z,99935.31
2022-11-29T02:31:38.318Z,99941.81
2022-11-29T02:33:19.671Z,99939.94
2022-11-29T02:34:48.266Z,99936.34
2022-11-29T02:36:12.678Z,99938.22
2022-11-29T02:37:28.228Z,99939.94
2022-11-29T02:38:47.871Z,99937.19
2022-11-29T02:40:01.955Z,99941.81
2022-11-29T02:41:28.008Z,99935.50
2022-11-29T02:42:56.068Z,99939.06
2022-11-29T02:44:12.629Z,99939.94
2022-11-29T02:45:24.051Z,99939.06
2022-11-29T02:46:51.649Z,99942.66
2022-11-29T02:48:01.125Z,99942.66
2022-11-29T02:49:09.691Z,99939.06
2022-11-29T02:50:21.278Z,99938.03
2022-11-29T02:51:27.995Z,99947.28
2022-11-29T02:52:38.373Z,99939.94
2022-11-29T02:53:45.119Z,99945.41
2022-11-29T02:54:53.672Z,99940.97
2022-11-29T02:56:01.784Z,99943.69
2022-11-29T02:57:10.216Z,99943.69
2022-11-29T02:58:18.150Z,99944.56
2022-11-29T02:59:33.657Z,99941.81
2022-11-29T03:00:36.083Z,99944.56
2022-11-29T03:01:45.737Z,99946.25
2022-11-29T03:02:50.020Z,99945.41
2022-11-29T03:03:57.374Z,99949.16
2022-11-29T03:05:03.834Z,99943.88
2022-11-29T03:06:16.397Z,99947.66
2022-11-29T03:07:26.685Z,99944.28
2022-11-29T03:08:33.908Z,99947.03
2022-11-29T03:09:40.212Z,99948.72
2022-11-29T03:10:51.644Z,99950.59
2022-11-29T03:11:58.991Z,99947.66
2022-11-29T03:13:04.219Z,99947.47
2022-11-29T03:14:14.872Z,99950.22
2022-11-29T03:15:26.288Z,99950.22
2022-11-29T03:16:37.091Z,99947.47
2022-11-29T03:17:53.174Z,99946.63
2022-11-29T03:19:05.462Z,99954.81
2022-11-29T03:20:20.920Z,99954.81
2022-11-29T03:21:32.077Z,99958.41
2022-11-29T03:22:44.463Z,99963.03
2022-11-29T03:23:48.738Z,99960.50
2022-11-29T03:25:02.289Z,99967.66
2022-11-29T03:26:09.529Z,99961.31
2022-11-29T03:27:14.390Z,99956.94
2022-11-29T03:28:19.646Z,99965.75
2022-11-29T03:29:27.508Z,99967.47
2022-11-29T03:30:29.756Z,99964.72
2022-11-29T03:31:36.114Z,99962.84
2022-11-29T03:32:45.168Z,99965.56
2022-11-29T03:33:52.872Z,99960.97
2022-11-29T03:35:00.086Z,99963.69
2022-11-29T03:36:07.055Z,99964.53
2022-11-29T03:37:15.406Z,99966.44
2022-11-29T03:38:23.051Z,99966.44
2022-11-29T03:39:30.291Z,99971.91
2022-11-29T03:40:40.199Z,99965.38
2022-11-29T03:41:47.083Z,99967.28
2022-11-29T03:42:53.423Z,99977.19
2022-11-29T03:43:58.004Z,99970.84
2022-11-29T03:45:05.145Z,99976.31
2022-11-29T03:46:10.255Z,99970.00
2022-11-29T03:47:15.574Z,99969.16
2022-11-29T03:48:21.127Z,99972.75
2022-11-29T03:49:27.250Z,99970.00
2022-11-29T03:50:33.556Z,99974.63
2022-11-29T03:51:48.372Z,99976.50
2022-11-29T03:52:54.258Z,99974.63
2022-11-29T03:53:59.451Z,99976.50
2022-11-29T03:55:12.418Z,99973.97
2022-11-29T03:56:29.652Z,99964.06
2022-11-29T03:57:35.703Z,99972.25
2022-11-29T03:58:47.427Z,99980.88
2022-11-29T03:59:55.696Z,99978.13
2022-11-29T04:01:26.832Z,99976.44
2022-11-29T04:02:40.995Z,99973.94
2022-11-29T04:04:02.330Z,99972.22
2022-11-29T04:05:42.773Z,99976.00
2022-11-29T04:06:55.958Z,99971.78
2022-11-29T04:08:11.961Z,99975.34
2022-11-29T04:09:25.836Z,99973.66
2022-11-29T04:10:41.388Z,99970.09
2022-11-29T04:12:06.387Z,99962.91
2022-11-29T04:13:37.007Z,99963.94
2022-11-29T04:14:58.011Z,99973.84
2022-11-29T04:16:28.466Z,99969.22
2022-11-29T04:17:45.771Z,99976.59
2022-11-29T04:19:06.895Z,99967.72
2022-11-29T04:20:50.815Z,99974.25
2022-11-29T04:22:10.748Z,99985.38
2022-11-29T04:23:33.143Z,99980.94
2022-11-29T04:25:09.054Z,99973.59
2022-11-29T04:26:38.484Z,99982.63
2022-11-29T04:27:49.755Z,99985.38
2022-11-29T04:29:11.230Z,99985.38
2022-11-29T04:30:17.732Z,99984.53
2022-11-29T04:31:29.194Z,99997.16
2022-11-29T04:32:51.663Z,99991.69
2022-11-29T04:34:20.657Z,99986.41
2022-11-29T04:35:32.983Z,99995.47
2022-11-29T04:36:51.513Z,99994.44
2022-11-29T04:38:29.656Z,99996.31
2022-11-29T04:39:50.431Z,99997.34
2022-11-29T04:41:09.491Z,100001.09
2022-11-29T04:42:29.302Z,100003.00
2022-11-29T04:43:52.517Z,100004.91
2022-11-29T04:45:19.794Z,99999.63
2022-11-29T04:46:36.735Z,99999.81
2022-11-29T04:47:49.421Z,100010.56
2022-11-29T04:49:16.524Z,100001.69
2022-11-29T04:50:28.931Z,100010.75
2022-11-29T04:51:50.161Z,100011.59
2022-11-29T04:53:11.615Z,100010.75
2022-11-29T04:54:21.573Z,100009.91
2022-11-29T04:55:35.233Z,100013.47
2022-11-29T04:56:41.229Z,100012.63
2022-11-29T04:57:46.560Z,100018.09
2022-11-29T04:58:54.374Z,100018.09
2022-11-29T05:00:00.231Z,100018.09
2022-11-29T05:01:08.438Z,100020.84
2022-11-29T05:02:17.676Z,100023.56
2022-11-29T05:03:26.824Z,100027.16
2022-11-29T05:04:33.159Z,100020.84
2022-11-29T05:05:41.304Z,100023.56
2022-11-29T05:06:49.326Z,100016.22
2022-11-29T05:07:58.183Z,100024.41
2022-11-29T05:09:07.719Z,100020.84
2022-11-29T05:10:20.724Z,100025.25
2022-11-29T05:11:33.942Z,100025.25
2022-11-29T05:12:40.770Z,100023.38
2022-11-29T05:13:48.513Z,100026.13
2022-11-29T05:15:01.951Z,100022.34
2022-11-29T05:16:24.437Z,100033.28
2022-11-29T05:17:33.284Z,100024.22
2022-11-29T05:18:55.603Z,100027.81
2022-11-29T05:20:05.797Z,100033.47
2022-11-29T05:21:14.096Z,100030.91
2022-11-29T05:22:28.419Z,100028.84
2022-11-29T05:23:38.355Z,100037.91
2022-11-29T05:24:52.626Z,100037.91
2022-11-29T05:26:01.088Z,100041.25
2022-11-29T05:27:10.878Z,100036.00
2022-11-29T05:28:17.956Z,100046.09
2022-11-29T05:29:24.772Z,100040.63
2022-11-29T05:30:33.809Z,100046.09
2022-11-29T05:31:55.843Z,100050.72
2022-11-29T05:33:04.829Z,100049.88
2022-11-29T05:34:22.169Z,100048.81
2022-11-29T05:35:41.183Z,100046.09
2022-11-29T05:36:50.538Z,100047.13
2022-11-29T05:37:54.744Z,100044.41
2022-11-29T05:39:08.780Z,100050.72
2022-11-29T05:40:44.817Z,100048.16
2022-11-29T05:41:57.999Z,100050.91
2022-11-29T05:43:13.914Z,100052.78
2022-11-29T05:44:20.867Z,100054.69
2022-11-29T05:45:25.552Z,100052.78
2022-11-29T05:46:32.339Z,100052.78
2022-11-29T05:47:37.814Z,100048.38
2022-11-29T05:48:46.696Z,100049.22
2022-11-29T05:49:54.256Z,100055.50
2022-11-29T05:51:07.052Z,100051.13
2022-11-29T05:52:25.448Z,100051.13
2022-11-29T05:53:30.449Z,100054.88
2022-11-29T05:54:36.151Z,100051.97
2022-11-29T05:55:43.195Z,100055.72
2022-11-29T05:56:51.022Z,100058.25
2022-11-29T05:57:57.076Z,100054.47
2022-11-29T05:59:05.191Z,100058.06
2022-11-29T06:00:11.196Z,100052.59
2022-11-29T06:01:18.905Z,100059.94
2022-11-29T06:02:29.989Z,100061.66
2022-11-29T06:03:36.321Z,100063.53
2022-11-29T06:04:51.099Z,100054.47
2022-11-29T06:05:57.381Z,100058.06
2022-11-29T06:07:03.779Z,100063.53
2022-11-29T06:08:11.890Z,100062.50
2022-11-29T06:09:17.670Z,100065.22
2022-11-29T06:10:22.860Z,100067.78
2022-11-29T06:11:27.390Z,100067.97
2022-11-29T06:12:34.932Z,100067.97
2022-11-29T06:13:50.993Z,100070.69
2022-11-29T06:15:25.554Z,100070.69
2022-11-29T06:16:43.933Z,100070.88
2022-11-29T06:18:03.690Z,100069.84
2022-11-29T06:19:23.435Z,100070.69
2022-11-29T06:20:35.166Z,100075.31
2022-11-29T06:21:40.874Z,100074.28
2022-11-29T06:22:54.090Z,100073.25
2022-11-29T06:24:25.507Z,100078.50
2022-11-29T06:25:39.491Z,100073.88
2022-11-29T06:27:02.228Z,100081.06
2022-11-29T06:28:22.656Z,100082.75
2022-11-29T06:29:30.139Z,100085.50
2022-11-29T06:30:42.063Z,100084.47
2022-11-29T06:31:47.011Z,100082.53
2022-11-29T06:32:54.381Z,100085.28
2022-11-29T06:34:00.516Z,100081.50
2022-11-29T06:35:05.353Z,100081.50
2022-11-29T06:36:14.597Z,100079.63
2022-11-29T06:37:22.017Z,100079.44
2022-11-29T06:38:26.187Z,100079.22
2022-11-29T06:39:29.286Z,100078.19
2022-11-29T06:40:31.524Z,100087.91
2022-11-29T06:41:34.758Z,100082.44
2022-11-29T06:42:36.426Z,100083.28
2022-11-29T06:43:39.583Z,100085.81
2022-11-29T06:44:43.180Z,100087.50
2022-11-29T06:45:49.299Z,100086.47
2022-11-29T06:46:57.870Z,100087.34
2022-11-29T06:48:03.448Z,100086.31
2022-11-29T06:49:10.537Z,100089.66
2022-11-29T06:50:29.220Z,100086.94
2022-11-29T06:51:34.274Z,100090.50
2022-11-29T06:52:42.668Z,100091.38
2022-11-29T06:53:50.546Z,100090.34
2022-11-29T06:55:07.780Z,100087.38
2022-11-29T06:56:17.937Z,100082.75
2022-11-29T06:57:23.378Z,100090.97
2022-11-29T06:58:44.520Z,100088.22
2022-11-29T06:59:57.264Z,100090.13
2022-11-29T07:01:06.437Z,100094.56
2022-11-29T07:02:25.645Z,100093.69
2022-11-29T07:03:37.973Z,100089.94
2022-11-29T07:05:00.617Z,100104.47
2022-11-29T07:06:08.403Z,100093.69
2022-11-29T07:07:15.657Z,100092.66
2022-11-29T07:08:20.446Z,100095.41
2022-11-29T07:09:26.271Z,100100.03
2022-11-29T07:10:30.407Z,100099.16
2022-11-29T07:11:34.105Z,100108.22
2022-11-29T07:12:36.331Z,100104.63
2022-11-29T07:13:39.875Z,100102.97
2022-11-29T07:14:42.304Z,100104.84
2022-11-29T07:15:51.695Z,100109.66
2022-11-29T07:17:02.827Z,100113.44
2022-11-29T07:18:18.295Z,100115.53
2022-11-29T07:19:28.271Z,100116.09
2022-11-29T07:20:34.776Z,100112.69
2022-11-29T07:21:47.252Z,100113.75
2022-11-29T07:22:58.579Z,100122.16
2022-11-29T07:24:08.767Z,100125.91
2022-11-29T07:25:23.228Z,100128.84
2022-11-29T07:26:31.219Z,100129.88
2022-11-29T07:27:39.592Z,100130.72
2022-11-29T07:28:50.472Z,100141.88
2022-11-29T07:30:05.149Z,100133.19
2022-11-29T07:31:11.687Z,100134.22
2022-11-29T07:32:21.678Z,100133.56
2022-11-29T07:33:30.441Z,100133.56
2022-11-29T07:34:38.200Z,100136.13
2022-11-29T07:35:47.144Z,100138.66
2022-11-29T07:36:55.319Z,100141.19
2022-11-29T07:38:04.641Z,100144.13
2022-11-29T07:39:19.161Z,100138.19
2022-11-29T07:40:26.521Z,100144.91
2022-11-29T07:41:35.613Z,100139.16
2022-11-29T07:42:45.321Z,100143.50
2022-11-29T07:43:52.351Z,100149.13
2022-11-29T07:45:01.925Z,100145.56
2022-11-29T07:46:03.813Z,100143.00
2022-11-29T07:47:06.571Z,100151.19
2022-11-29T07:48:11.067Z,100142.19
2022-11-29T07:49:13.771Z,100150.56
2022-11-29T07:50:17.017Z,100145.94
2022-11-29T07:51:18.699Z,100147.16
2022-11-29T07:52:21.564Z,100145.28
2022-11-29T07:53:24.927Z,100148.00
2022-11-29T07:54:27.713Z,100146.13
2022-11-29T07:55:29.791Z,100149.88
2022-11-29T07:56:32.457Z,100155.19
2022-11-29T07:57:36.445Z,100153.56
2022-11-29T07:58:39.199Z,100162.69
2022-11-29T07:59:42.121Z,100154.78
2022-11-29T08:00:44.815Z,100152.31
2022-11-29T08:01:48.111Z,100153.63
2022-11-29T08:02:50.952Z,100160.63
2022-11-29T08:03:54.928Z,100162.94
2022-11-29T08:04:56.812Z,100160.03
2022-11-29T08:05:59.504Z,100166.19
2022-11-29T08:07:03.229Z,100160.50
2022-11-29T08:08:06.667Z,100164.75
2022-11-29T08:09:09.314Z,100168.13
2022-11-29T08:10:13.976Z,100169.81
2022-11-29T08:11:16.913Z,100167.75
2022-11-29T08:12:18.635Z,100170.28
2022-11-29T08:13:21.738Z,100168.22
2022-11-29T08:14:24.453Z,100161.72
2022-11-29T08:15:26.158Z,100167.44
2022-11-29T08:16:29.183Z,100168.09
2022-11-29T08:17:31.858Z,100170.47
2022-11-29T08:18:34.562Z,100168.19
2022-11-29T08:19:37.639Z,100171.53
2022-11-29T08:20:41.714Z,100176.84
2022-11-29T08:21:46.840Z,100178.72
2022-11-29T08:22:55.270Z,100179.56
2022-11-29T08:23:57.951Z,100180.59
2022-11-29T08:25:00.071Z,100177.88
2022-11-29T08:26:03.264Z,100179.56
2022-11-29T08:27:04.932Z,100184.19
2022-11-29T08:28:07.807Z,100177.88
2022-11-29T08:29:09.545Z,100177.00
2022-11-29T08:30:12.667Z,100183.56
2022-11-29T08:31:14.419Z,100190.91
2022-11-29T08:32:17.174Z,100182.03
2022-11-29T08:33:18.889Z,100185.81
2022-11-29T08:34:22.249Z,100187.06
2022-11-29T08:35:26.475Z,100185.53
2022-11-29T08:36:29.248Z,100191.22
2022-11-29T08:37:30.963Z,100191.22
2022-11-29T08:38:33.853Z,100189.50
2022-11-29T08:39:35.575Z,100186.78
2022-11-29T08:40:38.288Z,100187.63
2022-11-29T08:41:40.970Z,100193.94
2022-11-29T08:42:42.726Z,100195.84
2022-11-29T08:43:45.720Z,100199.41
2022-11-29T08:44:48.506Z,100197.53
2022-11-29T08:45:52.103Z,100197.72
2022-11-29T08:47:12.561Z,100191.56
2022-11-29T08:48:15.449Z,100199.16
2022-11-29T08:49:17.331Z,100201.88
2022-11-29T08:50:20.045Z,100201.22
2022-11-29T08:51:24.056Z,100205.84
2022-11-29T08:52:58.729Z,100208.78
2022-11-29T08:54:01.223Z,100201.59
2022-11-29T08:55:03.937Z,100202.63
2022-11-29T08:56:31.909Z,100203.50
2022-11-29T08:57:39.955Z,100205.75
2022-11-29T08:58:43.440Z,100201.50
2022-11-29T08:59:45.073Z,100202.53
2022-11-29T09:00:47.979Z,100206.53
2022-11-29T09:01:49.847Z,100206.34
2022-11-29T09:02:52.704Z,100211.13
2022-11-29T09:04:00.474Z,100215.56
2022-11-29T09:05:03.164Z,100217.06
2022-11-29T09:06:10.470Z,100210.94
2022-11-29T09:07:16.647Z,100214.72
2022-11-29T09:08:19.516Z,100213.19
2022-11-29T09:09:22.172Z,100210.69
2022-11-29T09:10:23.997Z,100218.03
2022-11-29T09:11:27.935Z,100212.56
2022-11-29T09:12:29.670Z,100220.38
2022-11-29T09:13:32.331Z,100223.78
2022-11-29T09:14:35.124Z,100221.88
2022-11-29T09:15:38.269Z,100221.22
2022-11-29T09:16:40.935Z,100218.88
2022-11-29T09:17:43.834Z,100225.38
2022-11-29T09:18:51.275Z,100224.34
2022-11-29T09:19:54.640Z,100221.41
2022-11-29T09:20:56.605Z,100221.78
2022-11-29T09:21:59.604Z,100234.63
2022-11-29T09:23:02.996Z,100229.16
2022-11-29T09:24:07.982Z,100227.44
2022-11-29T09:25:10.259Z,100230.00
2022-11-29T09:26:17.625Z,100230.66
2022-11-29T09:27:20.426Z,100229.59
2022-11-29T09:28:22.332Z,100228.41
2022-11-29T09:29:24.990Z,100227.16
2022-11-29T09:30:29.846Z,100231.41
2022-11-29T09:31:33.453Z,100232.25
2022-11-29T09:32:36.375Z,100236.69
2022-11-29T09:33:39.509Z,100234.59
2022-11-29T09:34:42.907Z,100239.91
2022-11-29T09:35:45.005Z,100239.22
2022-11-29T09:36:48.741Z,100241.09
2022-11-29T09:37:50.418Z,100244.91
2022-11-29T09:38:54.476Z,100236.88
2022-11-29T09:39:57.149Z,100251.41
2022-11-29T09:41:03.814Z,100249.53
2022-11-29T09:42:20.064Z,100250.16
2022-11-29T09:43:28.315Z,100239.22
2022-11-29T09:44:39.831Z,100243.47
2022-11-29T09:45:43.685Z,100249.53
2022-11-29T09:46:58.396Z,100248.47
2022-11-29T09:48:21.033Z,100248.28
2022-11-29T09:49:48.288Z,100252.72
2022-11-29T09:50:55.277Z,100256.94
2022-11-29T09:52:04.025Z,100248.72
2022-11-29T09:53:23.899Z,100254.19
2022-11-29T09:54:36.311Z,100254.88
2022-11-29T09:55:53.331Z,100251.09
2022-11-29T09:56:57.227Z,100252.81
2022-11-29T09:58:01.313Z,100251.97
2022-11-29T09:59:06.249Z,100259.31
2022-11-29T10:00:16.849Z,100252.72
2022-11-29T10:01:23.008Z,100260.25
2022-11-29T10:02:31.993Z,100255.00
2022-11-29T10:03:36.221Z,100259.78
2022-11-29T10:04:42.607Z,100256.03
2022-11-29T10:05:47.557Z,100260.25
2022-11-29T10:06:56.489Z,100260.91
2022-11-29T10:08:04.626Z,100259.69
2022-11-29T10:09:09.526Z,100254.03
2022-11-29T10:10:18.488Z,100255.53
2022-11-29T10:11:24.066Z,100255.34
2022-11-29T10:12:34.931Z,100258.34
2022-11-29T10:13:36.734Z,100254.59
2022-11-29T10:14:45.227Z,100253.16
2022-11-29T10:15:50.797Z,100255.53
2022-11-29T10:16:56.545Z,100256.00
2022-11-29T10:18:02.482Z,100254.75
2022-11-29T10:19:08.526Z,100257.13
2022-11-29T10:20:15.499Z,100255.03
2022-11-29T10:21:21.474Z,100255.69
2022-11-29T10:22:28.556Z,100261.78
2022-11-29T10:23:33.940Z,100253.41
2022-11-29T10:24:39.336Z,100250.09
2022-11-29T10:25:47.961Z,100251.63
2022-11-29T10:26:50.599Z,100263.22
2022-11-29T10:27:53.836Z,100258.22
2022-11-29T10:28:58.001Z,100260.75
2022-11-29T10:30:02.483Z,100250.66
2022-11-29T10:31:17.162Z,100254.88
2022-11-29T10:32:21.565Z,100254.88
2022-11-29T10:33:27.045Z,100251.78
2022-11-29T10:34:32.287Z,100252.41
2022-11-29T10:35:34.934Z,100255.81
2022-11-29T10:36:41.469Z,100249.31
2022-11-29T10:38:01.421Z,100248.06
2022-11-29T10:39:13.061Z,100242.41
2022-11-29T10:40:19.103Z,100245.78
2022-11-29T10:41:23.975Z,100247.47
2022-11-29T10:42:45.887Z,100243.53
2022-11-29T10:43:48.906Z,100240.78
2022-11-29T10:44:50.692Z,100237.81
2022-11-29T10:45:56.179Z,100251.53
2022-11-29T10:47:01.089Z,100245.41
2022-11-29T10:48:04.434Z,100250.22
2022-11-29T10:49:13.223Z,100247.69
2022-11-29T10:50:19.298Z,100250.44
2022-11-29T10:51:21.959Z,100243.25
2022-11-29T10:52:24.886Z,100247.47
2022-11-29T10:53:30.593Z,100254.47
2022-11-29T10:54:39.902Z,100249.63
2022-11-29T10:55:44.294Z,100244.63
2022-11-29T10:56:51.051Z,100249.72
2022-11-29T10:58:11.914Z,100248.47
2022-11-29T10:59:22.007Z,100252.72
2022-11-29T11:00:24.923Z,100248.09
2022-11-29T11:01:29.094Z,100244.31
2022-11-29T11:02:32.267Z,100248.53
2022-11-29T11:03:37.415Z,100252.13
2022-11-29T11:04:46.644Z,100247.31
2022-11-29T11:06:05.302Z,100246.47
2022-11-29T11:07:07.972Z,100251.09
2022-11-29T11:08:17.186Z,100248.97
2022-11-29T11:09:21.482Z,100246.06
2022-11-29T11:10:27.442Z,100245.03
2022-11-29T11:11:32.091Z,100249.47
2022-11-29T11:12:36.908Z,100248.22
2022-11-29T11:13:40.824Z,100245.66
2022-11-29T11:14:44.872Z,100250.94
2022-11-29T11:15:46.867Z,100254.53
2022-11-29T11:16:49.579Z,100249.06
2022-11-29T11:18:00.409Z,100246.31
2022-11-29T11:19:25.627Z,100253.28
2022-11-29T11:20:29.592Z,100243.59
2022-11-29T11:21:32.405Z,100251.78
2022-11-29T11:22:36.134Z,100257.09
2022-11-29T11:23:45.090Z,100244.44
2022-11-29T11:24:47.999Z,100252.84
2022-11-29T11:25:56.769Z,100251.13
2022-11-29T11:26:59.870Z,100254.72
2022-11-29T11:28:15.427Z,100253.69
2022-11-29T11:29:20.234Z,100257.28
2022-11-29T11:30:23.587Z,100262.34
2022-11-29T11:31:28.723Z,100255.84
2022-11-29T11:32:31.651Z,100256.50
2022-11-29T11:33:35.218Z,100254.03
2022-11-29T11:34:38.958Z,100258.44
2022-11-29T11:35:41.075Z,100258.06
2022-11-29T11:36:43.730Z,100258.06
2022-11-29T11:37:57.188Z,100257.84
2022-11-29T11:39:12.920Z,100258.69
2022-11-29T11:40:25.892Z,100266.31
2022-11-29T11:41:44.686Z,100262.75
2022-11-29T11:42:47.723Z,100265.09
2022-11-29T11:43:57.083Z,100265.09
2022-11-29T11:45:00.459Z,100269.53
2022-11-29T11:46:03.535Z,100269.53
2022-11-29T11:47:07.153Z,100272.06
2022-11-29T11:48:14.399Z,100269.31
2022-11-29T11:49:26.653Z,100266.38
2022-11-29T11:50:32.194Z,100273.56
2022-11-29T11:51:34.869Z,100267.91
2022-11-29T11:52:46.130Z,100272.13
2022-11-29T11:53:55.965Z,100274.00
2022-11-29T11:55:00.434Z,100277.41
2022-11-29T11:56:05.538Z,100276.34
2022-11-29T11:57:16.422Z,100280.59
2022-11-29T11:58:23.111Z,100276.81
2022-11-29T11:59:28.172Z,100273.03
2022-11-29T12:01:02.972Z,100266.69
2022-11-29T12:02:02.715Z,100275.78
2022-11-29T12:03:05.173Z,100273.84
2022-11-29T12:04:11.657Z,100276.41
2022-11-29T12:05:16.426Z,100274.72
2022-11-29T12:06:45.125Z,100280.19
2022-11-29T12:09:24.110Z,100276.22
2022-11-29T12:10:30.074Z,100272.44
2022-11-29T12:11:38.711Z,100277.69
2022-11-29T12:12:43.081Z,100282.16
2022-11-29T12:13:48.017Z,100275.63
2022-11-29T12:14:56.888Z,100285.53
2022-11-29T12:16:01.783Z,100280.91
2022-11-29T12:17:14.288Z,100283.44
2022-11-29T12:18:26.019Z,100285.13
2022-11-29T12:19:33.146Z,100285.81
2022-11-29T12:20:40.759Z,100283.69
2022-11-29T12:21:46.066Z,100284.34
2022-11-29T12:23:05.078Z,100281.38
2022-11-29T12:24:17.747Z,100280.16
2022-11-29T12:25:23.798Z,100278.25
2022-11-29T12:26:55.767Z,100273.63
2022-11-29T12:27:51.265Z,100293.47
2022-11-29T12:28:53.963Z,100291.38
2022-11-29T12:29:57.283Z,100284.00
2022-11-29T12:31:05.906Z,100287.38
2022-11-29T12:32:19.241Z,100290.13
2022-11-29T12:33:28.105Z,100296.28
2022-11-29T12:34:43.332Z,100293.34
2022-11-29T12:35:56.181Z,100290.63
2022-11-29T12:37:04.336Z,100293.34
2022-11-29T12:38:12.259Z,100297.59
2022-11-29T12:39:33.079Z,100296.53
2022-11-29T12:40:41.534Z,100292.94
2022-11-29T12:41:53.624Z,100294.84
2022-11-29T12:43:03.992Z,100294.00
2022-11-29T12:44:15.119Z,100298.63
2022-11-29T12:45:31.338Z,100291.66
2022-11-29T12:46:34.234Z,100289.75
2022-11-29T12:47:51.720Z,100289.75
2022-11-29T12:49:01.653Z,100296.91
2022-11-29T12:50:11.827Z,100294.00
2022-11-29T12:51:22.479Z,100293.78
2022-11-29T12:52:31.765Z,100290.84
2022-11-29T12:53:46.378Z,100293.38
2022-11-29T12:54:56.188Z,100288.75
2022-11-29T12:56:07.691Z,100291.31
2022-11-29T12:57:15.962Z,100284.78
2022-11-29T12:58:29.125Z,100293.00
2022-11-29T12:59:45.437Z,100285.59
2022-11-29T13:01:00.097Z,100293.00
2022-11-29T13:02:16.767Z,100291.06
2022-11-29T13:03:25.037Z,100285.81
2022-11-29T13:04:36.279Z,100295.75
2022-11-29T13:05:51.513Z,100288.34
2022-11-29T13:06:59.885Z,100287.50
2022-11-29T13:08:11.354Z,100291.06
2022-11-29T13:09:29.386Z,100289.19